Time;durP1;ratioP1;P1;durP2;ratioP2;P2;SDS_P1;SDS_P2;PMS_P1;PMS_P2;Temp;Humidity;BMP_temperature;BMP_pressure;BME280_temperature;BME280_humidity;BME280_pressure;Samples;Min_cycle;Max_cycle;Signal;HPM_P1;HPM_P2
2021/03/04 00:00:32;;;;;;;24.93;14.10;;;6.60;99.90;;;;;;5022702;28;20426;-73
2021/03/04 00:02:58;;;;;;;21.40;13.53;;;6.60;99.90;;;;;;5014591;28;20521;-72
2021/03/04 00:05:24;;;;;;;23.13;14.20;;;6.60;99.90;;;;;;5022511;28;21057;-73
2021/03/04 00:07:50;;;;;;;21.60;12.23;;;6.60;99.90;;;;;;5019236;28;20514;-75
2021/03/04 00:10:19;;;;;;;27.53;12.90;;;6.60;99.90;;;;;;5025142;28;20255;-73
2021/03/04 00:12:45;;;;;;;23.60;14.27;;;6.50;99.90;;;;;;5025037;28;20196;-73
2021/03/04 00:15:13;;;;;;;24.20;14.20;;;6.50;99.90;;;;;;5024833;28;20456;-75
2021/03/04 00:17:39;;;;;;;31.07;13.60;;;6.50;99.90;;;;;;5024802;28;20211;-76
2021/03/04 00:20:09;;;;;;;28.10;12.77;;;6.50;99.90;;;;;;5024057;28;20428;-75
2021/03/04 00:22:35;;;;;;;24.30;13.60;;;6.50;99.90;;;;;;5025208;28;20463;-75
2021/03/04 00:25:03;;;;;;;23.30;14.20;;;6.50;99.90;;;;;;5023448;28;20521;-73
2021/03/04 00:27:28;;;;;;;19.73;12.30;;;6.50;99.90;;;;;;5026114;28;20461;-73
2021/03/04 00:29:54;;;;;;;21.00;12.40;;;6.50;99.90;;;;;;5023086;28;20776;-73
2021/03/04 00:32:19;;;;;;;24.77;12.90;;;6.40;99.90;;;;;;5025319;28;20194;-74
2021/03/04 00:34:45;;;;;;;21.67;12.77;;;6.40;99.90;;;;;;5023224;28;20231;-72
2021/03/04 00:37:10;;;;;;;23.13;12.40;;;6.40;99.90;;;;;;5024353;28;20234;-72
2021/03/04 00:39:36;;;;;;;21.80;11.50;;;6.40;99.90;;;;;;5024348;28;20227;-74
2021/03/04 00:42:01;;;;;;;19.17;11.77;;;6.40;99.90;;;;;;5023227;28;20241;-73
2021/03/04 00:44:27;;;;;;;16.33;9.90;;;6.40;99.90;;;;;;5025899;28;20196;-72
2021/03/04 00:46:52;;;;;;;19.23;10.60;;;6.40;99.90;;;;;;5018630;28;20198;-72
2021/03/04 00:49:18;;;;;;;16.53;9.97;;;6.40;99.90;;;;;;5022379;28;20202;-75
2021/03/04 00:51:43;;;;;;;16.40;11.70;;;6.40;99.90;;;;;;5023501;28;20273;-72
2021/03/04 00:54:09;;;;;;;18.67;10.67;;;6.40;99.90;;;;;;5023681;28;20208;-72
2021/03/04 00:56:35;;;;;;;18.30;10.83;;;6.30;99.90;;;;;;5023334;28;20216;-74
2021/03/04 00:59:00;;;;;;;16.17;10.47;;;6.30;99.90;;;;;;5022616;28;20180;-74
2021/03/04 01:01:27;;;;;;;17.83;9.90;;;6.20;99.90;;;;;;5025933;28;20205;-73
2021/03/04 01:03:53;;;;;;;16.40;11.03;;;6.20;99.90;;;;;;5022033;28;20450;-72
2021/03/04 01:06:18;;;;;;;14.43;10.00;;;6.20;99.90;;;;;;5025099;28;20241;-73
2021/03/04 01:08:48;;;;;;;16.17;10.00;;;6.20;99.90;;;;;;5023172;28;20477;-73
2021/03/04 01:11:16;;;;;;;19.00;10.67;;;6.20;99.90;;;;;;5024355;28;20772;-72
2021/03/04 01:13:43;;;;;;;15.23;10.40;;;6.10;99.90;;;;;;5021806;28;20973;-73
2021/03/04 01:16:08;;;;;;;22.33;9.50;;;6.20;99.90;;;;;;5023434;28;20825;-73
2021/03/04 01:18:35;;;;;;;17.57;10.13;;;6.20;99.90;;;;;;5023497;28;20429;-74
2021/03/04 01:21:01;;;;;;;14.67;9.80;;;6.10;99.90;;;;;;5022178;28;20174;-73
2021/03/04 01:23:26;;;;;;;23.70;10.33;;;6.10;99.90;;;;;;5025294;28;20504;-76
2021/03/04 01:25:52;;;;;;;24.00;10.73;;;6.10;99.90;;;;;;5021805;28;21259;-74
2021/03/04 01:28:17;;;;;;;20.03;9.43;;;6.10;99.90;;;;;;5024690;28;20187;-72
2021/03/04 01:30:43;;;;;;;13.37;8.90;;;6.00;99.90;;;;;;5022924;28;20249;-73
2021/03/04 01:33:09;;;;;;;9.87;7.47;;;6.00;99.90;;;;;;5023071;28;20179;-73
2021/03/04 01:35:35;;;;;;;18.27;8.17;;;6.00;99.90;;;;;;5023940;28;20628;-74
2021/03/04 01:38:01;;;;;;;15.70;9.10;;;6.00;99.90;;;;;;5021923;28;20567;-73
2021/03/04 01:40:26;;;;;;;15.20;7.53;;;5.90;99.90;;;;;;5025422;28;20178;-73
2021/03/04 01:42:52;;;;;;;14.80;8.30;;;6.00;99.90;;;;;;5021487;28;20184;-73
2021/03/04 01:45:18;;;;;;;14.50;9.03;;;6.00;99.90;;;;;;5024331;28;20204;-73
2021/03/04 01:47:49;;;;;;;28.40;9.90;;;5.90;99.90;;;;;;5022389;28;20231;-74
2021/03/04 01:50:16;;;;;;;18.30;8.90;;;5.90;99.90;;;;;;5023853;28;20864;-72
2021/03/04 01:52:43;;;;;;;15.33;8.33;;;5.90;99.90;;;;;;5022839;28;20774;-73
2021/03/04 01:55:09;;;;;;;14.83;7.40;;;5.90;99.90;;;;;;5022738;28;20456;-73
2021/03/04 01:57:37;;;;;;;9.43;6.43;;;5.90;99.90;;;;;;5023877;28;20492;-73
2021/03/04 02:00:08;;;;;;;17.00;6.80;;;5.80;99.90;;;;;;5021947;28;20546;-73
2021/03/04 02:03:14;;;;;;;17.47;6.57;;;5.80;99.90;;;;;;5023658;28;20426;-74
2021/03/04 02:05:40;;;;;;;12.67;7.17;;;5.80;99.90;;;;;;5020875;28;20421;-73
2021/03/04 02:08:27;;;;;;;10.70;7.37;;;5.80;99.90;;;;;;5023482;28;20417;-73
2021/03/04 02:10:58;;;;;;;10.83;8.40;;;5.80;99.90;;;;;;5024346;28;20189;-73
2021/03/04 02:13:38;;;;;;;18.57;9.20;;;5.80;99.90;;;;;;5017051;28;20430;-74
2021/03/04 02:16:22;;;;;;;16.10;8.30;;;5.70;99.90;;;;;;5019132;28;20416;-73
2021/03/04 02:18:59;;;;;;;18.00;7.70;;;5.70;99.90;;;;;;5021521;28;20432;-75
2021/03/04 02:22:02;;;;;;;13.13;7.40;;;5.80;99.90;;;;;;5024336;28;20437;-73
2021/03/04 02:25:07;;;;;;;11.03;7.40;;;5.70;99.90;;;;;;5024123;28;20869;-72
2021/03/04 02:27:35;;;;;;;12.90;6.70;;;5.70;99.90;;;;;;4962462;28;20439;-74
2021/03/04 02:30:10;;;;;;;9.97;6.70;;;5.70;99.90;;;;;;5009193;28;20441;-75
2021/03/04 02:32:44;;;;;;;9.70;7.50;;;5.60;99.90;;;;;;5020952;28;20436;-73
2021/03/04 02:35:24;;;;;;;18.30;9.20;;;5.60;99.90;;;;;;5022052;28;20544;-73
2021/03/04 02:37:54;;;;;;;19.63;7.10;;;5.60;99.90;;;;;;5020705;28;20538;-72
2021/03/04 02:40:23;;;;;;;15.20;7.70;;;5.60;99.90;;;;;;5022371;28;20425;-73
2021/03/04 02:42:49;;;;;;;18.43;8.03;;;5.60;99.90;;;;;;5020822;28;20454;-73
2021/03/04 02:45:16;;;;;;;16.77;7.57;;;5.50;99.90;;;;;;5022645;28;20489;-72
2021/03/04 02:47:42;;;;;;;15.20;8.00;;;5.50;99.90;;;;;;5021726;28;20433;-75
2021/03/04 02:50:09;;;;;;;13.43;7.07;;;5.50;99.90;;;;;;5021676;28;20519;-75
2021/03/04 02:52:36;;;;;;;11.97;7.53;;;5.50;99.90;;;;;;5022491;28;20481;-73
2021/03/04 02:55:03;;;;;;;12.93;8.23;;;5.50;99.90;;;;;;5020561;28;20827;-75
2021/03/04 02:57:30;;;;;;;11.10;7.37;;;5.50;99.90;;;;;;5023348;28;20460;-72
2021/03/04 02:59:58;;;;;;;8.97;6.87;;;5.50;99.90;;;;;;5019990;28;20412;-73
2021/03/04 03:02:25;;;;;;;7.43;6.40;;;5.50;99.90;;;;;;5023631;28;20470;-73
2021/03/04 03:04:53;;;;;;;13.00;7.27;;;5.50;99.90;;;;;;5020111;28;21097;-74
2021/03/04 03:07:18;;;;;;;11.40;7.27;;;5.50;99.90;;;;;;5022731;28;20417;-73
2021/03/04 03:09:44;;;;;;;9.27;7.10;;;5.50;99.90;;;;;;5021088;28;20510;-73
2021/03/04 03:12:13;;;;;;;12.63;6.50;;;5.60;99.90;;;;;;5020006;28;20568;-73
2021/03/04 03:14:38;;;;;;;11.30;6.83;;;5.60;99.90;;;;;;5020838;28;20841;-73
2021/03/04 03:17:05;;;;;;;12.70;7.20;;;5.70;99.90;;;;;;5022585;28;20508;-73
2021/03/04 03:19:32;;;;;;;11.10;5.93;;;5.60;99.90;;;;;;5019943;28;20418;-73
2021/03/04 03:21:57;;;;;;;13.73;6.47;;;5.60;99.90;;;;;;5023223;28;20425;-73
2021/03/04 03:24:23;;;;;;;11.90;6.80;;;5.60;99.90;;;;;;5019890;28;20441;-72
2021/03/04 03:26:49;;;;;;;7.80;6.20;;;5.60;99.90;;;;;;5022632;28;20197;-72
2021/03/04 03:29:15;;;;;;;12.83;6.87;;;5.60;99.90;;;;;;5020940;28;20505;-73
2021/03/04 03:31:41;;;;;;;9.67;5.73;;;5.60;99.90;;;;;;5018096;28;20183;-72
2021/03/04 03:34:08;;;;;;;8.93;5.67;;;5.60;99.90;;;;;;5017298;28;20227;-72
2021/03/04 03:36:35;;;;;;;9.67;5.80;;;5.50;99.90;;;;;;5020104;28;20877;-72
2021/03/04 03:39:04;;;;;;;7.47;5.63;;;5.60;99.90;;;;;;5022640;28;20445;-74
2021/03/04 03:41:31;;;;;;;13.47;5.60;;;5.50;99.90;;;;;;5018314;28;20422;-73
2021/03/04 03:43:57;;;;;;;5.90;4.90;;;5.50;99.90;;;;;;5021772;28;20456;-75
2021/03/04 03:46:24;;;;;;;9.27;5.47;;;5.50;99.90;;;;;;5023089;28;20419;-72
2021/03/04 03:48:51;;;;;;;9.27;5.50;;;5.50;99.90;;;;;;5019845;28;20186;-72
2021/03/04 03:51:17;;;;;;;14.23;5.87;;;5.50;99.90;;;;;;5021809;28;20417;-73
2021/03/04 03:53:44;;;;;;;7.70;5.27;;;5.50;99.90;;;;;;5020585;28;20969;-73
2021/03/04 03:56:10;;;;;;;8.40;5.70;;;5.50;99.90;;;;;;5020579;28;21064;-73
2021/03/04 03:58:38;;;;;;;10.10;5.63;;;5.40;99.90;;;;;;5021565;28;20427;-72
2021/03/04 04:01:05;;;;;;;8.43;5.20;;;5.40;99.90;;;;;;5019893;28;20508;-73
2021/03/04 04:03:31;;;;;;;5.97;4.80;;;5.50;99.90;;;;;;5022196;28;20904;-74
2021/03/04 04:05:57;;;;;;;6.17;5.03;;;5.50;99.90;;;;;;5019356;28;20428;-73
2021/03/04 04:08:24;;;;;;;12.60;5.83;;;5.50;99.90;;;;;;5022406;28;20217;-72
2021/03/04 04:10:50;;;;;;;7.70;5.90;;;5.50;99.90;;;;;;5019593;28;20424;-73
2021/03/04 04:13:16;;;;;;;13.97;6.10;;;5.40;99.90;;;;;;5021196;28;20442;-72
2021/03/04 04:15:42;;;;;;;10.97;5.77;;;5.40;99.90;;;;;;5020568;28;20510;-72
2021/03/04 04:18:07;;;;;;;9.73;5.67;;;5.40;99.90;;;;;;5020146;28;20928;-74
2021/03/04 04:20:33;;;;;;;10.43;6.67;;;5.40;99.90;;;;;;5021787;28;20436;-72
2021/03/04 04:22:59;;;;;;;12.20;6.83;;;5.40;99.90;;;;;;5019025;28;20571;-72
2021/03/04 04:25:25;;;;;;;10.27;6.00;;;5.30;99.90;;;;;;5015081;28;20208;-73
2021/03/04 04:27:52;;;;;;;12.23;5.50;;;5.30;99.90;;;;;;5021874;28;20431;-72
2021/03/04 04:30:19;;;;;;;12.03;6.30;;;5.30;99.90;;;;;;5019745;28;20431;-75
2021/03/04 04:32:45;;;;;;;8.23;6.03;;;5.30;99.90;;;;;;5021051;28;20913;-72
2021/03/04 04:35:13;;;;;;;18.77;6.03;;;5.20;99.90;;;;;;5020679;28;20462;-72
2021/03/04 04:37:38;;;;;;;13.87;6.33;;;5.20;99.90;;;;;;5019965;28;20472;-72
2021/03/04 04:40:05;;;;;;;11.20;6.00;;;5.20;99.90;;;;;;5018742;28;20441;-73
2021/03/04 04:42:31;;;;;;;9.17;6.33;;;5.10;99.90;;;;;;5018950;28;20208;-75
2021/03/04 04:44:56;;;;;;;15.40;7.30;;;5.00;99.90;;;;;;5018689;28;20810;-73
2021/03/04 04:47:22;;;;;;;9.63;6.10;;;5.00;99.90;;;;;;5019128;28;20208;-73
2021/03/04 04:49:48;;;;;;;7.93;5.47;;;4.90;99.90;;;;;;5019760;28;20223;-73
2021/03/04 04:52:13;;;;;;;14.57;7.20;;;4.90;99.90;;;;;;5021562;28;20186;-73
2021/03/04 04:54:39;;;;;;;18.17;5.70;;;4.90;99.90;;;;;;5022778;28;20716;-73
2021/03/04 04:57:04;;;;;;;9.43;7.40;;;4.90;99.90;;;;;;5023763;28;20221;-73
2021/03/04 04:59:30;;;;;;;11.47;5.90;;;4.80;99.90;;;;;;5025755;28;20204;-72
2021/03/04 05:01:55;;;;;;;8.97;5.50;;;4.90;99.90;;;;;;5023452;28;20555;-70
2021/03/04 05:04:21;;;;;;;10.27;6.17;;;4.80;99.90;;;;;;5025244;28;20674;-72
2021/03/04 05:06:47;;;;;;;7.40;4.93;;;4.90;99.90;;;;;;5023344;28;20189;-73
2021/03/04 05:09:12;;;;;;;9.47;5.60;;;4.80;99.90;;;;;;5024009;28;20186;-73
2021/03/04 05:11:38;;;;;;;11.63;7.50;;;4.80;99.90;;;;;;5023918;28;20431;-73
2021/03/04 05:14:04;;;;;;;11.00;6.73;;;4.80;99.90;;;;;;5022245;28;20247;-73
2021/03/04 05:16:29;;;;;;;16.93;7.20;;;4.70;99.90;;;;;;5025365;28;20574;-74
2021/03/04 05:18:55;;;;;;;13.57;6.13;;;4.70;99.90;;;;;;5022092;28;20189;-72
2021/03/04 05:21:20;;;;;;;13.13;6.30;;;4.70;99.90;;;;;;5024864;28;20182;-73
2021/03/04 05:23:46;;;;;;;12.63;6.87;;;4.70;99.90;;;;;;5022302;28;20217;-73
2021/03/04 05:26:11;;;;;;;9.40;6.10;;;4.70;99.90;;;;;;5023232;28;20265;-72
2021/03/04 05:28:37;;;;;;;11.63;6.43;;;4.60;99.90;;;;;;5023976;28;20957;-72
2021/03/04 05:31:02;;;;;;;10.90;5.73;;;4.60;99.90;;;;;;5022215;28;20269;-72
2021/03/04 05:33:28;;;;;;;12.60;5.53;;;4.60;99.90;;;;;;5025088;28;20184;-74
2021/03/04 05:35:53;;;;;;;9.93;5.40;;;4.60;99.90;;;;;;5021791;28;20181;-73
2021/03/04 05:38:19;;;;;;;7.00;5.40;;;4.60;99.90;;;;;;5024139;28;20684;-73
2021/03/04 05:40:44;;;;;;;10.33;6.77;;;4.50;99.90;;;;;;5022901;28;20188;-75
2021/03/04 05:43:10;;;;;;;9.70;6.37;;;4.50;99.90;;;;;;5022816;28;20263;-73
2021/03/04 05:45:39;;;;;;;16.93;6.80;;;4.50;99.90;;;;;;5023921;28;20233;-73
2021/03/04 05:48:08;;;;;;;13.23;6.40;;;4.50;99.90;;;;;;5022166;28;20441;-75
2021/03/04 05:50:37;;;;;;;10.23;6.20;;;4.50;99.90;;;;;;5024423;28;20434;-73
2021/03/04 05:53:12;;;;;;;12.00;5.57;;;4.40;99.90;;;;;;5021928;28;20519;-72
2021/03/04 05:55:38;;;;;;;12.80;6.60;;;4.40;99.90;;;;;;5021834;28;20479;-73
2021/03/04 05:58:05;;;;;;;10.03;6.70;;;4.40;99.90;;;;;;5028787;28;20602;-74
2021/03/04 06:00:31;;;;;;;17.17;6.63;;;4.40;99.90;;;;;;5021383;28;20488;-74
2021/03/04 06:02:57;;;;;;;12.33;5.43;;;4.30;99.90;;;;;;5030606;28;20440;-74
2021/03/04 06:05:22;;;;;;;6.40;5.40;;;4.30;99.90;;;;;;5024399;28;20287;-72
2021/03/04 06:07:48;;;;;;;10.30;6.17;;;4.30;99.90;;;;;;5020881;28;20523;-72
2021/03/04 06:10:15;;;;;;;8.63;5.97;;;4.30;99.90;;;;;;5029821;28;20239;-72
2021/03/04 06:12:41;;;;;;;8.83;5.80;;;4.30;99.90;;;;;;5022557;28;20459;-73
2021/03/04 06:15:09;;;;;;;9.67;6.90;;;4.30;99.90;;;;;;5021590;28;20453;-72
2021/03/04 06:17:35;;;;;;;13.63;7.40;;;4.30;99.90;;;;;;5022578;28;20531;-72
2021/03/04 06:20:11;;;;;;;12.40;6.60;;;4.30;99.90;;;;;;5020815;28;20468;-72
2021/03/04 06:22:38;;;;;;;10.20;6.53;;;4.40;99.90;;;;;;5022408;28;20187;-71
2021/03/04 06:25:09;;;;;;;12.70;5.47;;;4.40;99.90;;;;;;5018375;28;20523;-72
2021/03/04 06:27:40;;;;;;;7.83;5.40;;;4.40;99.90;;;;;;5023307;28;20422;-72
2021/03/04 06:30:16;;;;;;;9.10;5.77;;;4.40;99.90;;;;;;5020793;28;20439;-73
2021/03/04 06:32:57;;;;;;;9.87;5.23;;;4.40;99.90;;;;;;5012053;28;20527;-73
2021/03/04 06:35:24;;;;;;;9.60;5.90;;;4.40;99.90;;;;;;5021103;28;20812;-72
2021/03/04 06:37:50;;;;;;;15.33;6.20;;;4.40;99.90;;;;;;5019554;28;20474;-72
2021/03/04 06:40:22;;;;;;;12.57;6.60;;;4.50;99.90;;;;;;5023030;28;20417;-71
2021/03/04 06:42:47;;;;;;;22.43;7.20;;;4.50;99.90;;;;;;5021444;28;20438;-71
2021/03/04 06:45:23;;;;;;;8.70;5.60;;;4.50;99.90;;;;;;5020453;28;20521;-72
2021/03/04 06:47:48;;;;;;;9.60;6.10;;;4.60;99.90;;;;;;5019950;28;20200;-71
2021/03/04 06:50:25;;;;;;;10.37;6.63;;;4.70;99.90;;;;;;5022056;28;20438;-71
2021/03/04 06:52:51;;;;;;;10.60;6.50;;;4.80;99.90;;;;;;5017720;28;20273;-71
2021/03/04 06:55:17;;;;;;;9.60;5.20;;;4.90;99.90;;;;;;5022202;28;20463;-71
2021/03/04 06:58:01;;;;;;;14.23;5.90;;;5.00;99.90;;;;;;5021721;28;20541;-71
2021/03/04 07:00:27;;;;;;;11.90;6.17;;;5.10;99.90;;;;;;5014588;28;20222;-70
2021/03/04 07:02:55;;;;;;;9.17;6.03;;;5.20;99.90;;;;;;5021309;28;20435;-71
2021/03/04 07:05:21;;;;;;;7.60;5.70;;;5.30;99.90;;;;;;5020304;28;20459;-73
2021/03/04 07:07:52;;;;;;;9.20;4.93;;;5.40;99.90;;;;;;5020111;28;20437;-72
2021/03/04 07:10:19;;;;;;;23.60;9.40;;;5.60;99.90;;;;;;5019928;28;20483;-71
2021/03/04 07:12:46;;;;;;;7.90;6.00;;;5.70;99.90;;;;;;5019836;28;20531;-71
2021/03/04 07:15:14;;;;;;;14.53;6.03;;;5.90;99.90;;;;;;5021225;28;20487;-71
2021/03/04 07:17:41;;;;;;;11.10;6.93;;;6.00;99.90;;;;;;5021474;28;20486;-72
2021/03/04 07:20:13;;;;;;;15.40;6.60;;;6.10;99.90;;;;;;5020756;28;20503;-71
2021/03/04 07:22:43;;;;;;;10.87;6.03;;;6.40;99.90;;;;;;5021573;28;20444;-71
2021/03/04 07:25:11;;;;;;;10.83;6.40;;;6.60;99.90;;;;;;5020811;28;20452;-71
2021/03/04 07:27:37;;;;;;;8.70;5.83;;;6.80;99.90;;;;;;5021961;28;20968;-72
2021/03/04 07:30:03;;;;;;;15.00;6.00;;;7.10;99.90;;;;;;5017791;28;20500;-71
2021/03/04 07:32:29;;;;;;;12.90;6.50;;;7.40;99.90;;;;;;5020680;28;20473;-72
2021/03/04 07:34:55;;;;;;;11.77;5.90;;;7.50;99.90;;;;;;5017653;28;20945;-72
2021/03/04 07:37:21;;;;;;;9.23;6.63;;;7.60;99.90;;;;;;5017999;28;20262;-72
2021/03/04 07:39:56;;;;;;;9.80;6.50;;;7.80;99.90;;;;;;5020257;28;20673;-72
2021/03/04 07:42:22;;;;;;;10.20;6.70;;;8.30;99.90;;;;;;5021328;28;20245;-73
2021/03/04 07:44:48;;;;;;;10.73;6.57;;;9.20;99.90;;;;;;5019964;28;20480;-72
2021/03/04 07:47:23;;;;;;;12.20;7.00;;;10.20;99.90;;;;;;5021612;28;20442;-72
2021/03/04 07:49:48;;;;;;;16.23;7.77;;;11.00;99.90;;;;;;5020116;28;21135;-71
2021/03/04 07:52:22;;;;;;;16.60;7.30;;;11.60;99.90;;;;;;5021314;28;20433;-72
2021/03/04 07:54:52;;;;;;;12.60;8.40;;;12.30;99.90;;;;;;5019264;28;20268;-72
2021/03/04 07:57:19;;;;;;;11.03;8.60;;;12.60;99.90;;;;;;5021664;28;20465;-72
2021/03/04 08:00:03;;;;;;;16.53;8.90;;;12.80;99.90;;;;;;5020500;28;20766;-72
2021/03/04 08:02:34;;;;;;;20.10;8.50;;;12.30;99.90;;;;;;5015367;28;20425;-72
2021/03/04 08:05:12;;;;;;;12.13;8.67;;;11.80;99.90;;;;;;5015981;28;20456;-74
2021/03/04 08:07:39;;;;;;;18.03;8.37;;;11.20;99.90;;;;;;5015664;28;20454;-73
2021/03/04 08:10:12;;;;;;;11.93;7.17;;;11.00;99.90;;;;;;5019626;28;20420;-72
2021/03/04 08:13:04;;;;;;;12.37;8.00;;;11.30;99.90;;;;;;5021118;28;20513;-72
2021/03/04 08:15:32;;;;;;;18.20;8.30;;;11.80;99.90;;;;;;5012263;28;20459;-73
2021/03/04 08:17:58;;;;;;;11.30;7.83;;;12.30;99.90;;;;;;5015359;28;20476;-71
2021/03/04 08:20:24;;;;;;;11.60;8.00;;;12.80;99.90;;;;;;5019450;28;20436;-72
2021/03/04 08:22:52;;;;;;;9.70;7.50;;;13.40;99.90;;;;;;5019296;28;21212;-72
2021/03/04 08:25:25;;;;;;;12.03;8.33;;;13.70;99.90;;;;;;5018754;28;20803;-72
2021/03/04 08:27:54;;;;;;;12.30;8.27;;;13.60;99.90;;;;;;5017046;28;20437;-72
2021/03/04 08:30:30;;;;;;;14.73;8.03;;;13.30;99.90;;;;;;5023362;28;20430;-72
2021/03/04 08:32:57;;;;;;;13.77;7.90;;;13.20;99.90;;;;;;5021517;28;20421;-72
2021/03/04 08:35:23;;;;;;;13.80;8.07;;;13.40;99.90;;;;;;5025930;28;20801;-71
2021/03/04 08:38:01;;;;;;;21.30;8.33;;;13.70;99.90;;;;;;5023286;28;20472;-71
2021/03/04 08:40:27;;;;;;;10.80;8.03;;;14.20;99.90;;;;;;5026335;28;20431;-72
2021/03/04 08:42:52;;;;;;;19.70;7.07;;;14.60;99.90;;;;;;5022832;28;20429;-72
2021/03/04 08:45:28;;;;;;;15.97;8.20;;;15.30;99.90;;;;;;5024978;28;20206;-73
2021/03/04 08:47:54;;;;;;;18.97;7.17;;;15.70;99.90;;;;;;5022644;28;20184;-74
2021/03/04 08:50:20;;;;;;;13.83;7.00;;;15.60;99.90;;;;;;5025523;28;20518;-72
2021/03/04 08:52:45;;;;;;;14.30;7.57;;;15.60;99.90;;;;;;5023494;28;20197;-72
2021/03/04 08:55:11;;;;;;;13.77;6.90;;;15.90;99.90;;;;;;5024010;28;20333;-72
2021/03/04 08:57:37;;;;;;;8.83;6.40;;;15.90;99.90;;;;;;5024667;28;20213;-73
2021/03/04 09:00:12;;;;;;;11.60;6.13;;;15.80;99.90;;;;;;5022635;28;20446;-72
2021/03/04 09:02:38;;;;;;;22.13;6.57;;;16.00;99.90;;;;;;5024439;28;20204;-74
2021/03/04 09:05:06;;;;;;;12.73;6.30;;;16.20;99.90;;;;;;5019840;28;20449;-73
2021/03/04 09:07:39;;;;;;;17.80;6.50;;;16.40;99.90;;;;;;5019730;28;21005;-72
2021/03/04 09:10:07;;;;;;;13.73;7.90;;;16.20;99.90;;;;;;5016118;28;20442;-73
2021/03/04 09:12:45;;;;;;;10.23;5.70;;;16.10;99.90;;;;;;5024907;28;20434;-72
2021/03/04 09:15:17;;;;;;;8.50;6.13;;;15.70;99.90;;;;;;5018582;28;20453;-72
2021/03/04 09:17:44;;;;;;;15.30;6.83;;;15.40;99.90;;;;;;5019083;28;20470;-72
2021/03/04 09:20:11;;;;;;;9.80;6.90;;;15.80;99.90;;;;;;5016527;28;20470;-74
2021/03/04 09:22:40;;;;;;;10.43;6.07;;;16.40;99.90;;;;;;5023389;28;20444;-72
2021/03/04 09:25:08;;;;;;;8.23;5.90;;;17.00;99.90;;;;;;5019822;28;20865;-72
2021/03/04 09:27:37;;;;;;;14.70;5.83;;;17.40;99.90;;;;;;5024557;28;20502;-72
2021/03/04 09:30:04;;;;;;;10.60;6.23;;;17.70;99.90;;;;;;5022177;28;20484;-74
2021/03/04 09:32:31;;;;;;;17.60;7.17;;;17.90;99.90;;;;;;5025815;28;20447;-73
2021/03/04 09:34:57;;;;;;;13.40;6.23;;;17.70;99.90;;;;;;5020714;28;20449;-74
2021/03/04 09:37:25;;;;;;;15.73;7.77;;;17.00;99.90;;;;;;5018785;28;20491;-70
2021/03/04 09:39:54;;;;;;;11.27;7.50;;;16.70;99.90;;;;;;5022503;28;20276;-73
2021/03/04 09:42:31;;;;;;;16.67;7.17;;;16.70;99.90;;;;;;5022576;28;20425;-72
2021/03/04 09:44:59;;;;;;;18.83;7.27;;;16.80;99.90;;;;;;5021756;28;20465;-72
2021/03/04 09:47:28;;;;;;;22.20;8.43;;;17.20;99.90;;;;;;5023004;28;20522;-72
2021/03/04 09:49:55;;;;;;;20.83;9.30;;;17.50;99.90;;;;;;5022217;28;20775;-74
2021/03/04 09:52:26;;;;;;;17.90;8.00;;;17.80;99.90;;;;;;5023933;28;20488;-73
2021/03/04 09:55:02;;;;;;;21.93;7.73;;;18.20;99.90;;;;;;5021625;28;20453;-73
2021/03/04 09:57:28;;;;;;;14.83;8.57;;;18.10;99.90;;;;;;5024809;28;20471;-73
2021/03/04 09:59:53;;;;;;;17.70;8.20;;;18.70;99.90;;;;;;5021314;28;20436;-72
2021/03/04 10:02:20;;;;;;;20.87;10.27;;;19.20;99.90;;;;;;5023656;28;20671;-73
2021/03/04 10:05:00;;;;;;;24.27;9.90;;;19.40;99.90;;;;;;5022233;28;20292;-73
2021/03/04 10:07:27;;;;;;;18.87;10.27;;;19.20;99.90;;;;;;5024610;28;20510;-72
2021/03/04 10:09:53;;;;;;;22.77;10.20;;;19.00;99.90;;;;;;5021375;28;20821;-75
2021/03/04 10:12:20;;;;;;;14.63;10.73;;;19.00;99.90;;;;;;5023497;28;20437;-72
2021/03/04 10:14:47;;;;;;;17.50;11.00;;;19.00;99.90;;;;;;5022144;28;20445;-72
2021/03/04 10:17:13;;;;;;;20.73;11.27;;;19.30;99.90;;;;;;5019110;28;20496;-72
2021/03/04 10:19:41;;;;;;;19.77;11.10;;;19.00;99.90;;;;;;5022136;28;20929;-73
2021/03/04 10:22:07;;;;;;;15.67;11.27;;;19.20;99.90;;;;;;5021752;28;20465;-73
2021/03/04 10:24:33;;;;;;;19.93;11.30;;;19.30;99.90;;;;;;5020528;28;20453;-73
2021/03/04 10:26:59;;;;;;;24.17;12.70;;;19.70;99.90;;;;;;5014077;28;20473;-72
2021/03/04 10:29:28;;;;;;;25.90;13.27;;;19.80;99.90;;;;;;5021276;28;20452;-73
2021/03/04 10:31:54;;;;;;;32.30;13.10;;;20.00;99.90;;;;;;5019841;28;20186;-73
2021/03/04 10:34:21;;;;;;;26.67;12.37;;;20.30;99.90;;;;;;5019741;28;20989;-73
2021/03/04 10:36:46;;;;;;;26.07;14.57;;;20.60;99.90;;;;;;5015411;28;20461;-72
2021/03/04 10:39:14;;;;;;;28.07;14.03;;;20.20;99.90;;;;;;5022127;28;20426;-72
2021/03/04 10:41:40;;;;;;;27.90;14.33;;;20.00;99.90;;;;;;5022213;28;20741;-72
2021/03/04 10:44:06;;;;;;;24.73;15.87;;;19.60;99.90;;;;;;5020959;28;20449;-72
2021/03/04 10:46:31;;;;;;;29.73;14.50;;;19.40;99.90;;;;;;5023700;28;20236;-74
2021/03/04 10:48:57;;;;;;;24.20;14.30;;;19.10;99.90;;;;;;5016084;28;20187;-72
2021/03/04 10:51:22;;;;;;;26.10;15.67;;;19.30;99.90;;;;;;5022000;28;20321;-72
2021/03/04 10:53:48;;;;;;;33.83;14.13;;;19.40;99.90;;;;;;5020771;28;20209;-74
2021/03/04 10:56:13;;;;;;;23.20;14.57;;;19.60;99.90;;;;;;5021984;28;20202;-71
2021/03/04 10:58:39;;;;;;;30.33;14.37;;;20.10;99.90;;;;;;5021368;28;20250;-73
2021/03/04 11:01:04;;;;;;;27.43;13.83;;;20.40;99.90;;;;;;5020600;28;20195;-74
2021/03/04 11:03:30;;;;;;;31.00;13.43;;;20.80;99.90;;;;;;5020708;28;20553;-74
2021/03/04 11:05:56;;;;;;;20.53;12.60;;;20.60;99.90;;;;;;5018883;28;20179;-72
2021/03/04 11:08:22;;;;;;;23.80;13.23;;;20.70;99.90;;;;;;5021756;28;20255;-73
2021/03/04 11:10:47;;;;;;;26.60;13.30;;;20.00;99.90;;;;;;5020775;28;20452;-73
2021/03/04 11:13:16;;;;;;;30.33;13.20;;;20.10;99.90;;;;;;5020428;28;20512;-72
2021/03/04 11:15:42;;;;;;;21.17;12.13;;;20.10;99.90;;;;;;5021347;28;20180;-73
2021/03/04 11:18:08;;;;;;;28.30;12.00;;;20.00;99.90;;;;;;5018640;28;20465;-73
2021/03/04 11:20:33;;;;;;;23.70;13.10;;;20.10;99.90;;;;;;5022042;28;20273;-74
2021/03/04 11:22:59;;;;;;;30.47;12.93;;;20.10;99.90;;;;;;5027572;28;20173;-74
2021/03/04 11:25:24;;;;;;;22.20;11.23;;;20.20;99.90;;;;;;5021246;28;20244;-73
2021/03/04 11:27:50;;;;;;;22.47;11.90;;;20.30;99.90;;;;;;5018807;28;20197;-74
2021/03/04 11:30:17;;;;;;;41.77;12.17;;;20.20;99.90;;;;;;5020342;28;20600;-74
2021/03/04 11:32:42;;;;;;;19.60;10.30;;;20.20;99.90;;;;;;5020259;28;20186;-74
2021/03/04 11:35:08;;;;;;;21.03;11.97;;;20.00;99.90;;;;;;5020515;28;20437;-72
2021/03/04 11:37:34;;;;;;;29.27;11.33;;;19.70;99.90;;;;;;5022260;28;20280;-73
2021/03/04 11:40:00;;;;;;;18.40;11.10;;;19.40;99.90;;;;;;5019709;28;20425;-72
2021/03/04 11:42:25;;;;;;;27.33;10.97;;;19.20;99.90;;;;;;5022704;28;20555;-73
2021/03/04 11:44:51;;;;;;;29.83;11.97;;;19.00;99.90;;;;;;5019765;28;20294;-72
2021/03/04 11:47:16;;;;;;;18.73;11.33;;;18.80;99.90;;;;;;5021139;28;20297;-72
2021/03/04 11:49:42;;;;;;;24.53;10.67;;;18.80;99.90;;;;;;5021028;28;20182;-73
2021/03/04 11:52:07;;;;;;;26.47;11.93;;;19.10;99.90;;;;;;5020000;28;20182;-73
2021/03/04 11:54:33;;;;;;;21.60;11.93;;;19.00;99.90;;;;;;5022070;28;20198;-73
2021/03/04 11:56:59;;;;;;;24.97;11.63;;;18.90;99.90;;;;;;5019047;28;20267;-71
2021/03/04 11:59:24;;;;;;;24.53;11.00;;;18.70;99.90;;;;;;5022613;28;20189;-73
2021/03/04 12:01:50;;;;;;;20.00;8.83;;;18.30;99.90;;;;;;5019712;28;20203;-72
2021/03/04 12:04:15;;;;;;;17.43;7.33;;;18.10;99.10;;;;;;5020189;28;20276;-72
2021/03/04 12:06:41;;;;;;;19.80;6.63;;;18.10;99.10;;;;;;5019290;28;20265;-73
2021/03/04 12:09:06;;;;;;;20.60;6.17;;;18.20;98.70;;;;;;5019813;28;20175;-73
2021/03/04 12:11:32;;;;;;;21.33;6.80;;;18.30;98.50;;;;;;5022484;28;20174;-72
2021/03/04 12:13:57;;;;;;;17.47;9.03;;;18.40;98.30;;;;;;5018924;28;20194;-73
2021/03/04 12:16:23;;;;;;;20.80;7.77;;;18.30;98.30;;;;;;5022100;28;20253;-72
2021/03/04 12:18:48;;;;;;;12.37;5.93;;;18.20;98.40;;;;;;5019755;28;20213;-73
2021/03/04 12:21:14;;;;;;;11.07;5.17;;;18.20;97.60;;;;;;5020839;28;20543;-72
2021/03/04 12:23:40;;;;;;;13.80;5.83;;;18.20;97.10;;;;;;5020835;28;20190;-72
2021/03/04 12:26:05;;;;;;;13.63;6.10;;;18.10;97.40;;;;;;5019679;28;20480;-72
2021/03/04 12:28:31;;;;;;;8.70;3.83;;;18.20;97.40;;;;;;5022779;28;20264;-74
2021/03/04 12:30:56;;;;;;;12.47;4.93;;;18.10;98.50;;;;;;5028208;28;20187;-74
2021/03/04 12:33:22;;;;;;;21.13;6.07;;;18.00;98.10;;;;;;5022109;28;20640;-74
2021/03/04 12:35:47;;;;;;;12.43;5.07;;;17.80;96.90;;;;;;5018445;28;20265;-74
2021/03/04 12:38:13;;;;;;;27.30;4.50;;;17.60;97.70;;;;;;5020497;28;20260;-73
2021/03/04 12:40:39;;;;;;;16.00;4.93;;;17.60;97.60;;;;;;5020906;28;20216;-75
2021/03/04 12:43:05;;;;;;;12.33;4.37;;;17.50;97.30;;;;;;5019320;28;20186;-74
2021/03/04 12:45:31;;;;;;;8.10;4.40;;;17.50;97.90;;;;;;5022162;28;20686;-75